sensor_id;sensor_type;location;lat;lon;timestamp;temperature;humidity
53653;DHT22;39553;52.954;5.932;2023-01-19T00:00:13;3.00;99.90
53653;DHT22;39553;52.954;5.932;2023-01-19T00:02:40;3.10;99.90
53653;DHT22;39553;52.954;5.932;2023-01-19T00:05:08;2.70;99.90
53653;DHT22;39553;52.954;5.932;2023-01-19T00:07:33;2.90;99.90
53653;DHT22;39553;52.954;5.932;2023-01-19T00:09:59;2.80;99.90
53653;DHT22;39553;52.954;5.932;2023-01-19T00:12:25;4.00;99.90
53653;DHT22;39553;52.954;5.932;2023-01-19T00:14:51;3.60;99.90
53653;DHT22;39553;52.954;5.932;2023-01-19T00:17:17;2.90;99.90
53653;DHT22;39553;52.954;5.932;2023-01-19T00:19:42;3.00;99.90
53653;DHT22;39553;52.954;5.932;2023-01-19T00:22:08;3.40;99.90
53653;DHT22;39553;52.954;5.932;2023-01-19T00:24:34;4.70;99.90
53653;DHT22;39553;52.954;5.932;2023-01-19T00:27:00;2.90;99.90
53653;DHT22;39553;52.954;5.932;2023-01-19T00:29:28;3.10;99.90
53653;DHT22;39553;52.954;5.932;2023-01-19T00:32:02;2.90;99.90
53653;DHT22;39553;52.954;5.932;2023-01-19T00:34:28;3.30;99.90
53653;DHT22;39553;52.954;5.932;2023-01-19T00:37:13;3.10;99.90
53653;DHT22;39553;52.954;5.932;2023-01-19T00:39:39;3.10;99.90
53653;DHT22;39553;52.954;5.932;2023-01-19T00:42:05;3.00;99.90
53653;DHT22;39553;52.954;5.932;2023-01-19T00:44:49;3.00;99.90
53653;DHT22;39553;52.954;5.932;2023-01-19T00:47:15;3.20;99.90
53653;DHT22;39553;52.954;5.932;2023-01-19T00:49:40;3.20;99.90
53653;DHT22;39553;52.954;5.932;2023-01-19T00:52:06;3.10;99.90
53653;DHT22;39553;52.954;5.932;2023-01-19T00:54:32;2.70;99.90
53653;DHT22;39553;52.954;5.932;2023-01-19T00:56:57;3.10;99.90
53653;DHT22;39553;52.954;5.932;2023-01-19T00:59:23;3.10;99.90
53653;DHT22;39553;52.954;5.932;2023-01-19T01:01:50;3.00;99.90
53653;DHT22;39553;52.954;5.932;2023-01-19T01:04:16;3.60;99.90
53653;DHT22;39553;52.954;5.932;2023-01-19T01:06:41;3.50;99.90
53653;DHT22;39553;52.954;5.932;2023-01-19T01:09:07;3.10;99.90
53653;DHT22;39553;52.954;5.932;2023-01-19T01:11:42;3.10;99.90
53653;DHT22;39553;52.954;5.932;2023-01-19T01:14:09;3.10;99.90
53653;DHT22;39553;52.954;5.932;2023-01-19T01:16:35;3.30;99.90
53653;DHT22;39553;52.954;5.932;2023-01-19T01:19:01;4.10;99.90
53653;DHT22;39553;52.954;5.932;2023-01-19T01:21:27;3.20;99.90
53653;DHT22;39553;52.954;5.932;2023-01-19T01:23:53;4.30;99.90
53653;DHT22;39553;52.954;5.932;2023-01-19T01:26:18;4.90;99.90
53653;DHT22;39553;52.954;5.932;2023-01-19T01:28:44;4.80;99.90
53653;DHT22;39553;52.954;5.932;2023-01-19T01:31:10;3.20;99.90
53653;DHT22;39553;52.954;5.932;2023-01-19T01:33:36;4.70;99.90
53653;DHT22;39553;52.954;5.932;2023-01-19T01:36:01;3.30;99.90
53653;DHT22;39553;52.954;5.932;2023-01-19T01:38:27;3.40;99.90
53653;DHT22;39553;52.954;5.932;2023-01-19T01:40:53;3.30;99.90
53653;DHT22;39553;52.954;5.932;2023-01-19T01:43:19;3.30;99.90
53653;DHT22;39553;52.954;5.932;2023-01-19T01:45:48;3.30;99.90
53653;DHT22;39553;52.954;5.932;2023-01-19T01:50:52;3.40;99.90
53653;DHT22;39553;52.954;5.932;2023-01-19T01:53:40;3.40;99.90
53653;DHT22;39553;52.954;5.932;2023-01-19T01:56:10;3.20;99.90
53653;DHT22;39553;52.954;5.932;2023-01-19T01:58:37;3.20;99.90
53653;DHT22;39553;52.954;5.932;2023-01-19T02:01:05;3.20;99.90
53653;DHT22;39553;52.954;5.932;2023-01-19T02:03:51;3.10;99.90
53653;DHT22;39553;52.954;5.932;2023-01-19T02:06:17;3.40;99.90
53653;DHT22;39553;52.954;5.932;2023-01-19T02:11:34;3.60;99.90
53653;DHT22;39553;52.954;5.932;2023-01-19T02:14:19;3.20;99.90
53653;DHT22;39553;52.954;5.932;2023-01-19T02:16:45;4.40;99.90
53653;DHT22;39553;52.954;5.932;2023-01-19T02:19:16;3.20;99.90
53653;DHT22;39553;52.954;5.932;2023-01-19T02:21:57;5.10;99.90
53653;DHT22;39553;52.954;5.932;2023-01-19T02:24:24;3.40;99.90
53653;DHT22;39553;52.954;5.932;2023-01-19T02:26:50;4.60;99.90
53653;DHT22;39553;52.954;5.932;2023-01-19T02:29:21;4.30;99.90
53653;DHT22;39553;52.954;5.932;2023-01-19T02:31:49;4.20;99.90
53653;DHT22;39553;52.954;5.932;2023-01-19T02:34:17;4.40;99.90
53653;DHT22;39553;52.954;5.932;2023-01-19T02:39:30;3.00;99.90
53653;DHT22;39553;52.954;5.932;2023-01-19T02:42:28;3.00;99.90
53653;DHT22;39553;52.954;5.932;2023-01-19T02:44:56;3.00;99.90
53653;DHT22;39553;52.954;5.932;2023-01-19T02:47:22;3.00;99.90
53653;DHT22;39553;52.954;5.932;2023-01-19T02:49:56;3.40;99.90
53653;DHT22;39553;52.954;5.932;2023-01-19T02:52:22;3.10;99.90
53653;DHT22;39553;52.954;5.932;2023-01-19T02:55:15;3.00;99.90
53653;DHT22;39553;52.954;5.932;2023-01-19T03:00:24;3.20;99.90
53653;DHT22;39553;52.954;5.932;2023-01-19T03:08:46;4.30;99.90
53653;DHT22;39553;52.954;5.932;2023-01-19T03:11:16;3.30;99.90
53653;DHT22;39553;52.954;5.932;2023-01-19T03:13:51;4.50;99.90
53653;DHT22;39553;52.954;5.932;2023-01-19T03:16:45;3.30;99.90
53653;DHT22;39553;52.954;5.932;2023-01-19T03:19:12;3.40;99.90
53653;DHT22;39553;52.954;5.932;2023-01-19T03:21:41;4.10;99.90
53653;DHT22;39553;52.954;5.932;2023-01-19T03:24:10;3.20;99.90
53653;DHT22;39553;52.954;5.932;2023-01-19T03:26:43;3.30;99.90
53653;DHT22;39553;52.954;5.932;2023-01-19T03:29:11;3.50;99.90
53653;DHT22;39553;52.954;5.932;2023-01-19T03:31:41;3.80;99.90
53653;DHT22;39553;52.954;5.932;2023-01-19T03:34:10;3.30;99.90
53653;DHT22;39553;52.954;5.932;2023-01-19T03:36:51;3.50;99.90
53653;DHT22;39553;52.954;5.932;2023-01-19T03:39:23;3.90;99.90
53653;DHT22;39553;52.954;5.932;2023-01-19T03:41:52;3.60;99.90
53653;DHT22;39553;52.954;5.932;2023-01-19T03:44:19;3.50;99.90
53653;DHT22;39553;52.954;5.932;2023-01-19T03:46:47;3.60;99.90
53653;DHT22;39553;52.954;5.932;2023-01-19T03:49:15;4.30;99.90
53653;DHT22;39553;52.954;5.932;2023-01-19T03:51:40;3.30;99.90
53653;DHT22;39553;52.954;5.932;2023-01-19T03:54:09;3.60;99.90
53653;DHT22;39553;52.954;5.932;2023-01-19T03:56:35;3.40;99.90
53653;DHT22;39553;52.954;5.932;2023-01-19T03:59:01;3.50;99.90
53653;DHT22;39553;52.954;5.932;2023-01-19T04:01:26;4.30;99.90
53653;DHT22;39553;52.954;5.932;2023-01-19T04:03:52;3.60;99.90
53653;DHT22;39553;52.954;5.932;2023-01-19T04:06:19;4.50;99.90
53653;DHT22;39553;52.954;5.932;2023-01-19T04:08:47;4.30;99.90
53653;DHT22;39553;52.954;5.932;2023-01-19T04:11:13;3.70;99.90
53653;DHT22;39553;52.954;5.932;2023-01-19T04:13:39;3.80;99.90
53653;DHT22;39553;52.954;5.932;2023-01-19T04:16:05;4.60;99.90
53653;DHT22;39553;52.954;5.932;2023-01-19T04:18:32;3.60;99.90
53653;DHT22;39553;52.954;5.932;2023-01-19T04:21:06;5.10;99.90
53653;DHT22;39553;52.954;5.932;2023-01-19T04:23:32;3.80;99.90
53653;DHT22;39553;52.954;5.932;2023-01-19T04:26:00;3.80;99.90
53653;DHT22;39553;52.954;5.932;2023-01-19T04:28:26;5.20;99.90
53653;DHT22;39553;52.954;5.932;2023-01-19T04:30:52;3.80;99.90
53653;DHT22;39553;52.954;5.932;2023-01-19T04:33:19;3.60;99.90
53653;DHT22;39553;52.954;5.932;2023-01-19T04:35:45;3.70;99.90
53653;DHT22;39553;52.954;5.932;2023-01-19T04:38:12;3.50;99.90
53653;DHT22;39553;52.954;5.932;2023-01-19T04:40:37;4.00;99.90
53653;DHT22;39553;52.954;5.932;2023-01-19T04:43:03;4.60;99.90
53653;DHT22;39553;52.954;5.932;2023-01-19T04:45:29;3.60;99.90
53653;DHT22;39553;52.954;5.932;2023-01-19T04:47:54;3.50;99.90
53653;DHT22;39553;52.954;5.932;2023-01-19T04:50:20;3.80;99.90
53653;DHT22;39553;52.954;5.932;2023-01-19T04:52:46;3.30;99.90
53653;DHT22;39553;52.954;5.932;2023-01-19T04:55:12;3.20;99.90
53653;DHT22;39553;52.954;5.932;2023-01-19T04:57:38;3.00;99.90
53653;DHT22;39553;52.954;5.932;2023-01-19T05:00:05;3.70;99.90
53653;DHT22;39553;52.954;5.932;2023-01-19T05:02:31;3.20;99.90
53653;DHT22;39553;52.954;5.932;2023-01-19T05:04:57;4.30;99.90
53653;DHT22;39553;52.954;5.932;2023-01-19T05:07:22;3.00;99.90
53653;DHT22;39553;52.954;5.932;2023-01-19T05:09:48;4.20;99.90
53653;DHT22;39553;52.954;5.932;2023-01-19T05:12:14;2.90;99.90
53653;DHT22;39553;52.954;5.932;2023-01-19T05:14:39;2.90;99.90
53653;DHT22;39553;52.954;5.932;2023-01-19T05:17:05;4.00;99.90
53653;DHT22;39553;52.954;5.932;2023-01-19T05:19:31;2.80;99.90
53653;DHT22;39553;52.954;5.932;2023-01-19T05:21:57;4.30;99.90
53653;DHT22;39553;52.954;5.932;2023-01-19T05:24:23;3.90;99.90
53653;DHT22;39553;52.954;5.932;2023-01-19T05:26:48;3.50;99.90
53653;DHT22;39553;52.954;5.932;2023-01-19T05:29:14;4.10;99.90
53653;DHT22;39553;52.954;5.932;2023-01-19T05:31:40;4.50;99.90
53653;DHT22;39553;52.954;5.932;2023-01-19T05:34:06;2.80;99.90
53653;DHT22;39553;52.954;5.932;2023-01-19T05:36:31;2.70;99.90
53653;DHT22;39553;52.954;5.932;2023-01-19T05:38:57;2.80;99.90
53653;DHT22;39553;52.954;5.932;2023-01-19T05:41:23;3.60;99.90
53653;DHT22;39553;52.954;5.932;2023-01-19T05:43:48;3.30;99.90
53653;DHT22;39553;52.954;5.932;2023-01-19T05:46:14;2.70;99.90
53653;DHT22;39553;52.954;5.932;2023-01-19T05:48:40;2.80;99.90
53653;DHT22;39553;52.954;5.932;2023-01-19T05:51:06;2.70;99.90
53653;DHT22;39553;52.954;5.932;2023-01-19T05:53:32;2.90;99.90
53653;DHT22;39553;52.954;5.932;2023-01-19T05:56:08;2.90;99.90
53653;DHT22;39553;52.954;5.932;2023-01-19T05:58:38;3.40;99.90
53653;DHT22;39553;52.954;5.932;2023-01-19T06:01:05;3.00;99.90
53653;DHT22;39553;52.954;5.932;2023-01-19T06:03:32;3.10;99.90
53653;DHT22;39553;52.954;5.932;2023-01-19T06:05:59;3.20;99.90
53653;DHT22;39553;52.954;5.932;2023-01-19T06:08:25;3.50;99.90
53653;DHT22;39553;52.954;5.932;2023-01-19T06:10:51;4.20;99.90
53653;DHT22;39553;52.954;5.932;2023-01-19T06:13:16;3.10;99.90
53653;DHT22;39553;52.954;5.932;2023-01-19T06:15:42;3.30;99.90
53653;DHT22;39553;52.954;5.932;2023-01-19T06:18:10;3.20;99.90
53653;DHT22;39553;52.954;5.932;2023-01-19T06:20:36;5.10;99.90
53653;DHT22;39553;52.954;5.932;2023-01-19T06:23:03;3.10;99.90
53653;DHT22;39553;52.954;5.932;2023-01-19T06:25:30;3.20;99.90
53653;DHT22;39553;52.954;5.932;2023-01-19T06:27:56;3.00;99.90
53653;DHT22;39553;52.954;5.932;2023-01-19T06:30:21;3.40;99.90
53653;DHT22;39553;52.954;5.932;2023-01-19T06:32:47;3.10;99.90
53653;DHT22;39553;52.954;5.932;2023-01-19T06:35:13;3.50;99.90
53653;DHT22;39553;52.954;5.932;2023-01-19T06:37:39;2.90;99.90
53653;DHT22;39553;52.954;5.932;2023-01-19T06:40:06;2.90;99.90
53653;DHT22;39553;52.954;5.932;2023-01-19T06:42:32;2.90;99.90
53653;DHT22;39553;52.954;5.932;2023-01-19T06:44:58;2.90;99.90
53653;DHT22;39553;52.954;5.932;2023-01-19T06:47:25;3.00;99.90
53653;DHT22;39553;52.954;5.932;2023-01-19T06:49:50;3.00;99.90
53653;DHT22;39553;52.954;5.932;2023-01-19T06:52:16;2.90;99.90
53653;DHT22;39553;52.954;5.932;2023-01-19T06:54:46;2.80;99.90
53653;DHT22;39553;52.954;5.932;2023-01-19T06:57:12;3.10;99.90
53653;DHT22;39553;52.954;5.932;2023-01-19T06:59:38;2.80;99.90
53653;DHT22;39553;52.954;5.932;2023-01-19T07:02:05;2.90;99.90
53653;DHT22;39553;52.954;5.932;2023-01-19T07:04:31;2.90;99.90
53653;DHT22;39553;52.954;5.932;2023-01-19T07:06:58;1.70;99.90
53653;DHT22;39553;52.954;5.932;2023-01-19T07:09:25;3.60;99.90
53653;DHT22;39553;52.954;5.932;2023-01-19T07:11:52;2.70;99.90
53653;DHT22;39553;52.954;5.932;2023-01-19T07:14:18;2.90;99.90
53653;DHT22;39553;52.954;5.932;2023-01-19T07:16:48;2.60;99.90
53653;DHT22;39553;52.954;5.932;2023-01-19T07:19:13;3.90;99.90
53653;DHT22;39553;52.954;5.932;2023-01-19T07:21:39;2.80;99.90
53653;DHT22;39553;52.954;5.932;2023-01-19T07:24:05;3.20;99.90
53653;DHT22;39553;52.954;5.932;2023-01-19T07:26:31;2.80;99.90
53653;DHT22;39553;52.954;5.932;2023-01-19T07:28:57;3.50;99.90
53653;DHT22;39553;52.954;5.932;2023-01-19T07:31:22;2.90;99.90
53653;DHT22;39553;52.954;5.932;2023-01-19T07:33:48;3.70;99.90
53653;DHT22;39553;52.954;5.932;2023-01-19T07:36:14;3.00;99.90
53653;DHT22;39553;52.954;5.932;2023-01-19T07:38:40;3.00;99.90
53653;DHT22;39553;52.954;5.932;2023-01-19T07:41:08;3.00;99.90
53653;DHT22;39553;52.954;5.932;2023-01-19T07:43:34;3.10;99.90
53653;DHT22;39553;52.954;5.932;2023-01-19T07:46:02;2.90;99.90
53653;DHT22;39553;52.954;5.932;2023-01-19T07:48:28;3.10;99.90
53653;DHT22;39553;52.954;5.932;2023-01-19T07:51:02;2.80;99.90
53653;DHT22;39553;52.954;5.932;2023-01-19T07:53:36;2.70;99.90
53653;DHT22;39553;52.954;5.932;2023-01-19T07:56:02;2.60;99.90
53653;DHT22;39553;52.954;5.932;2023-01-19T07:58:32;2.50;99.90
53653;DHT22;39553;52.954;5.932;2023-01-19T08:00:57;2.60;99.90
53653;DHT22;39553;52.954;5.932;2023-01-19T08:03:23;2.60;99.90
53653;DHT22;39553;52.954;5.932;2023-01-19T08:05:50;2.50;99.90
53653;DHT22;39553;52.954;5.932;2023-01-19T08:08:16;2.50;99.90
53653;DHT22;39553;52.954;5.932;2023-01-19T08:10:42;2.40;99.90
53653;DHT22;39553;52.954;5.932;2023-01-19T08:13:08;2.40;99.90
53653;DHT22;39553;52.954;5.932;2023-01-19T08:15:34;3.30;99.90
53653;DHT22;39553;52.954;5.932;2023-01-19T08:18:02;2.50;99.90
53653;DHT22;39553;52.954;5.932;2023-01-19T08:20:30;2.40;99.90
53653;DHT22;39553;52.954;5.932;2023-01-19T08:22:57;2.30;99.90
53653;DHT22;39553;52.954;5.932;2023-01-19T08:27:57;2.30;99.90
53653;DHT22;39553;52.954;5.932;2023-01-19T08:30:23;2.40;99.90
53653;DHT22;39553;52.954;5.932;2023-01-19T08:32:52;2.50;99.90
53653;DHT22;39553;52.954;5.932;2023-01-19T08:35:19;2.70;99.90
53653;DHT22;39553;52.954;5.932;2023-01-19T08:37:45;2.40;99.90
53653;DHT22;39553;52.954;5.932;2023-01-19T08:40:11;2.60;99.90
53653;DHT22;39553;52.954;5.932;2023-01-19T08:42:37;2.50;99.90
53653;DHT22;39553;52.954;5.932;2023-01-19T08:45:02;2.50;99.90
53653;DHT22;39553;52.954;5.932;2023-01-19T08:47:28;2.60;99.90
53653;DHT22;39553;52.954;5.932;2023-01-19T08:49:54;2.60;99.90
53653;DHT22;39553;52.954;5.932;2023-01-19T08:52:20;2.60;99.90
53653;DHT22;39553;52.954;5.932;2023-01-19T08:54:45;2.70;99.90
53653;DHT22;39553;52.954;5.932;2023-01-19T08:57:11;2.60;99.90
53653;DHT22;39553;52.954;5.932;2023-01-19T08:59:37;3.90;99.90
53653;DHT22;39553;52.954;5.932;2023-01-19T09:02:03;2.70;99.90
53653;DHT22;39553;52.954;5.932;2023-01-19T09:04:28;2.80;99.90
53653;DHT22;39553;52.954;5.932;2023-01-19T09:06:54;2.70;99.90
53653;DHT22;39553;52.954;5.932;2023-01-19T09:09:20;2.80;99.90
53653;DHT22;39553;52.954;5.932;2023-01-19T09:11:45;2.90;99.90
53653;DHT22;39553;52.954;5.932;2023-01-19T09:14:11;3.20;99.90
53653;DHT22;39553;52.954;5.932;2023-01-19T09:16:37;3.60;99.90
53653;DHT22;39553;52.954;5.932;2023-01-19T09:19:03;4.20;99.90
53653;DHT22;39553;52.954;5.932;2023-01-19T09:21:28;4.70;99.90
53653;DHT22;39553;52.954;5.932;2023-01-19T09:23:54;5.00;99.90
53653;DHT22;39553;52.954;5.932;2023-01-19T09:26:20;6.00;99.90
53653;DHT22;39553;52.954;5.932;2023-01-19T09:28:46;5.60;99.90
53653;DHT22;39553;52.954;5.932;2023-01-19T09:31:12;5.70;99.90
53653;DHT22;39553;52.954;5.932;2023-01-19T09:33:39;5.80;99.90
53653;DHT22;39553;52.954;5.932;2023-01-19T09:36:05;6.50;99.90
53653;DHT22;39553;52.954;5.932;2023-01-19T09:38:31;5.60;99.90
53653;DHT22;39553;52.954;5.932;2023-01-19T09:40:57;7.10;99.90
53653;DHT22;39553;52.954;5.932;2023-01-19T09:43:43;6.00;99.90
53653;DHT22;39553;52.954;5.932;2023-01-19T09:46:37;6.10;99.90
53653;DHT22;39553;52.954;5.932;2023-01-19T09:49:31;6.10;99.90
53653;DHT22;39553;52.954;5.932;2023-01-19T09:51:58;6.10;99.90
53653;DHT22;39553;52.954;5.932;2023-01-19T09:54:34;6.00;99.90
53653;DHT22;39553;52.954;5.932;2023-01-19T09:57:01;6.00;99.90
53653;DHT22;39553;52.954;5.932;2023-01-19T09:59:31;6.00;99.90
53653;DHT22;39553;52.954;5.932;2023-01-19T10:02:04;5.80;99.90
53653;DHT22;39553;52.954;5.932;2023-01-19T10:04:41;5.70;99.90
53653;DHT22;39553;52.954;5.932;2023-01-19T10:07:28;5.50;99.90
53653;DHT22;39553;52.954;5.932;2023-01-19T10:20:35;4.90;99.90
53653;DHT22;39553;52.954;5.932;2023-01-19T10:23:04;4.90;99.90
53653;DHT22;39553;52.954;5.932;2023-01-19T10:25:39;4.90;99.90
53653;DHT22;39553;52.954;5.932;2023-01-19T10:28:06;5.40;99.90
53653;DHT22;39553;52.954;5.932;2023-01-19T10:30:34;5.20;99.90
53653;DHT22;39553;52.954;5.932;2023-01-19T10:32:59;5.50;99.90
53653;DHT22;39553;52.954;5.932;2023-01-19T10:35:25;6.90;99.90
53653;DHT22;39553;52.954;5.932;2023-01-19T10:37:57;6.10;99.90
53653;DHT22;39553;52.954;5.932;2023-01-19T10:42:51;6.60;99.90
53653;DHT22;39553;52.954;5.932;2023-01-19T10:45:19;6.70;99.90
53653;DHT22;39553;52.954;5.932;2023-01-19T10:47:46;6.40;99.90
53653;DHT22;39553;52.954;5.932;2023-01-19T10:50:33;6.50;99.90
53653;DHT22;39553;52.954;5.932;2023-01-19T10:53:02;6.60;99.90
53653;DHT22;39553;52.954;5.932;2023-01-19T10:57:59;6.50;99.90
53653;DHT22;39553;52.954;5.932;2023-01-19T11:03:04;6.60;99.90
53653;DHT22;39553;52.954;5.932;2023-01-19T11:05:45;6.30;99.90
53653;DHT22;39553;52.954;5.932;2023-01-19T11:08:28;6.10;99.90
53653;DHT22;39553;52.954;5.932;2023-01-19T11:10:58;6.10;99.90
53653;DHT22;39553;52.954;5.932;2023-01-19T11:13:27;6.20;99.90
53653;DHT22;39553;52.954;5.932;2023-01-19T11:15:58;6.20;99.90
53653;DHT22;39553;52.954;5.932;2023-01-19T11:18:30;6.20;99.90
53653;DHT22;39553;52.954;5.932;2023-01-19T11:21:00;6.90;99.90
53653;DHT22;39553;52.954;5.932;2023-01-19T11:23:32;6.10;99.90
53653;DHT22;39553;52.954;5.932;2023-01-19T11:26:00;5.90;99.90
53653;DHT22;39553;52.954;5.932;2023-01-19T11:28:33;5.70;99.90
53653;DHT22;39553;52.954;5.932;2023-01-19T11:33:36;5.90;99.90
53653;DHT22;39553;52.954;5.932;2023-01-19T11:39:25;6.20;99.90
53653;DHT22;39553;52.954;5.932;2023-01-19T11:42:02;6.50;99.90
53653;DHT22;39553;52.954;5.932;2023-01-19T11:47:10;6.40;99.90
53653;DHT22;39553;52.954;5.932;2023-01-19T11:52:37;7.30;99.90
53653;DHT22;39553;52.954;5.932;2023-01-19T11:57:49;7.00;99.90
53653;DHT22;39553;52.954;5.932;2023-01-19T12:02:51;6.90;99.90
53653;DHT22;39553;52.954;5.932;2023-01-19T12:05:19;6.90;99.90
53653;DHT22;39553;52.954;5.932;2023-01-19T12:07:46;7.00;99.90
53653;DHT22;39553;52.954;5.932;2023-01-19T12:10:19;7.00;99.90
53653;DHT22;39553;52.954;5.932;2023-01-19T12:12:48;6.90;99.90
53653;DHT22;39553;52.954;5.932;2023-01-19T12:15:41;6.90;99.90
53653;DHT22;39553;52.954;5.932;2023-01-19T12:18:54;7.00;99.90
53653;DHT22;39553;52.954;5.932;2023-01-19T12:21:00;7.20;99.90
53653;DHT22;39553;52.954;5.932;2023-01-19T12:26:27;7.30;99.90
53653;DHT22;39553;52.954;5.932;2023-01-19T12:28:55;6.80;99.90
53653;DHT22;39553;52.954;5.932;2023-01-19T12:31:23;6.50;99.90
53653;DHT22;39553;52.954;5.932;2023-01-19T12:33:50;6.30;99.90
53653;DHT22;39553;52.954;5.932;2023-01-19T12:41:32;6.20;99.90
53653;DHT22;39553;52.954;5.932;2023-01-19T12:46:45;6.70;99.90
53653;DHT22;39553;52.954;5.932;2023-01-19T12:52:24;7.10;99.90
53653;DHT22;39553;52.954;5.932;2023-01-19T12:55:06;7.00;99.90
53653;DHT22;39553;52.954;5.932;2023-01-19T12:58:12;7.10;99.90
53653;DHT22;39553;52.954;5.932;2023-01-19T13:00:44;7.10;99.90
53653;DHT22;39553;52.954;5.932;2023-01-19T13:13:25;6.20;99.90
53653;DHT22;39553;52.954;5.932;2023-01-19T13:15:52;6.30;99.90
53653;DHT22;39553;52.954;5.932;2023-01-19T13:18:25;5.80;99.90
53653;DHT22;39553;52.954;5.932;2023-01-19T13:20:57;7.20;99.90
53653;DHT22;39553;52.954;5.932;2023-01-19T13:26:28;5.60;99.90
53653;DHT22;39553;52.954;5.932;2023-01-19T13:29:04;5.30;99.90
53653;DHT22;39553;52.954;5.932;2023-01-19T13:31:35;5.20;99.90
53653;DHT22;39553;52.954;5.932;2023-01-19T13:34:03;5.10;99.90
53653;DHT22;39553;52.954;5.932;2023-01-19T13:36:31;5.00;99.90
53653;DHT22;39553;52.954;5.932;2023-01-19T13:39:04;4.90;99.90
53653;DHT22;39553;52.954;5.932;2023-01-19T13:41:35;5.00;99.90
53653;DHT22;39553;52.954;5.932;2023-01-19T13:44:11;5.10;99.90
53653;DHT22;39553;52.954;5.932;2023-01-19T13:46:38;5.20;99.90
53653;DHT22;39553;52.954;5.932;2023-01-19T13:49:14;5.30;99.90
53653;DHT22;39553;52.954;5.932;2023-01-19T13:51:40;5.50;99.90
53653;DHT22;39553;52.954;5.932;2023-01-19T13:54:14;5.80;99.90
53653;DHT22;39553;52.954;5.932;2023-01-19T13:56:45;6.10;99.90
53653;DHT22;39553;52.954;5.932;2023-01-19T13:59:12;6.10;99.90
53653;DHT22;39553;52.954;5.932;2023-01-19T14:01:40;6.00;99.90
53653;DHT22;39553;52.954;5.932;2023-01-19T14:04:27;5.70;99.90
53653;DHT22;39553;52.954;5.932;2023-01-19T14:07:03;5.40;99.90
53653;DHT22;39553;52.954;5.932;2023-01-19T14:09:29;5.20;99.90
53653;DHT22;39553;52.954;5.932;2023-01-19T14:12:16;5.10;99.90
53653;DHT22;39553;52.954;5.932;2023-01-19T14:14:44;4.90;99.90
53653;DHT22;39553;52.954;5.932;2023-01-19T14:17:32;5.70;99.90
53653;DHT22;39553;52.954;5.932;2023-01-19T14:19:58;5.10;99.90
53653;DHT22;39553;52.954;5.932;2023-01-19T14:22:44;4.70;99.90
53653;DHT22;39553;52.954;5.932;2023-01-19T14:25:33;5.00;99.90
53653;DHT22;39553;52.954;5.932;2023-01-19T14:31:21;4.00;99.90
53653;DHT22;39553;52.954;5.932;2023-01-19T14:33:49;4.70;99.90
53653;DHT22;39553;52.954;5.932;2023-01-19T14:38:57;4.40;99.90
53653;DHT22;39553;52.954;5.932;2023-01-19T14:41:36;4.40;99.90
53653;DHT22;39553;52.954;5.932;2023-01-19T14:44:10;4.40;99.90
53653;DHT22;39553;52.954;5.932;2023-01-19T14:46:47;4.40;99.90
53653;DHT22;39553;52.954;5.932;2023-01-19T14:49:19;4.40;99.90
53653;DHT22;39553;52.954;5.932;2023-01-19T14:51:46;4.40;99.90
53653;DHT22;39553;52.954;5.932;2023-01-19T14:54:18;4.40;99.90
53653;DHT22;39553;52.954;5.932;2023-01-19T14:56:52;4.40;99.90
53653;DHT22;39553;52.954;5.932;2023-01-19T14:59:18;4.40;99.90
53653;DHT22;39553;52.954;5.932;2023-01-19T15:01:44;4.50;99.90
53653;DHT22;39553;52.954;5.932;2023-01-19T15:04:09;4.40;99.90
53653;DHT22;39553;52.954;5.932;2023-01-19T15:06:39;4.40;99.90
53653;DHT22;39553;52.954;5.932;2023-01-19T15:09:07;4.40;99.90
53653;DHT22;39553;52.954;5.932;2023-01-19T15:11:34;4.40;99.90
53653;DHT22;39553;52.954;5.932;2023-01-19T15:14:00;4.40;99.90
53653;DHT22;39553;52.954;5.932;2023-01-19T15:16:28;4.30;99.90
53653;DHT22;39553;52.954;5.932;2023-01-19T15:18:54;4.40;99.90
53653;DHT22;39553;52.954;5.932;2023-01-19T15:21:20;4.30;99.90
53653;DHT22;39553;52.954;5.932;2023-01-19T15:23:51;4.30;99.90
53653;DHT22;39553;52.954;5.932;2023-01-19T15:26:21;4.30;99.90
53653;DHT22;39553;52.954;5.932;2023-01-19T15:28:47;4.30;99.90
53653;DHT22;39553;52.954;5.932;2023-01-19T15:31:15;4.30;99.90
53653;DHT22;39553;52.954;5.932;2023-01-19T15:33:41;4.30;99.90
53653;DHT22;39553;52.954;5.932;2023-01-19T15:36:20;4.30;99.90
53653;DHT22;39553;52.954;5.932;2023-01-19T15:38:47;4.20;99.90
53653;DHT22;39553;52.954;5.932;2023-01-19T15:41:27;4.10;99.90
53653;DHT22;39553;52.954;5.932;2023-01-19T15:43:54;4.00;99.90
53653;DHT22;39553;52.954;5.932;2023-01-19T15:46:20;3.90;99.90
53653;DHT22;39553;52.954;5.932;2023-01-19T15:48:47;4.10;99.90
53653;DHT22;39553;52.954;5.932;2023-01-19T15:51:14;4.00;99.90
53653;DHT22;39553;52.954;5.932;2023-01-19T15:53:41;3.70;99.90
53653;DHT22;39553;52.954;5.932;2023-01-19T15:56:18;3.60;99.90
53653;DHT22;39553;52.954;5.932;2023-01-19T15:58:45;3.60;99.90
53653;DHT22;39553;52.954;5.932;2023-01-19T16:01:13;3.50;99.90
53653;DHT22;39553;52.954;5.932;2023-01-19T16:03:39;3.40;99.90
53653;DHT22;39553;52.954;5.932;2023-01-19T16:06:06;3.30;99.90
53653;DHT22;39553;52.954;5.932;2023-01-19T16:08:33;3.30;99.90
53653;DHT22;39553;52.954;5.932;2023-01-19T16:11:08;3.20;99.90
53653;DHT22;39553;52.954;5.932;2023-01-19T16:13:34;3.20;99.90
53653;DHT22;39553;52.954;5.932;2023-01-19T16:16:05;3.10;99.90
53653;DHT22;39553;52.954;5.932;2023-01-19T16:18:31;3.00;99.90
53653;DHT22;39553;52.954;5.932;2023-01-19T16:20:57;3.10;99.90
53653;DHT22;39553;52.954;5.932;2023-01-19T16:23:23;2.90;99.90
53653;DHT22;39553;52.954;5.932;2023-01-19T16:26:00;2.90;99.90
53653;DHT22;39553;52.954;5.932;2023-01-19T16:28:29;3.50;99.90
53653;DHT22;39553;52.954;5.932;2023-01-19T16:30:56;2.80;99.90
53653;DHT22;39553;52.954;5.932;2023-01-19T16:33:21;2.80;99.90
53653;DHT22;39553;52.954;5.932;2023-01-19T16:35:47;2.80;99.90
53653;DHT22;39553;52.954;5.932;2023-01-19T16:38:14;2.70;99.90
53653;DHT22;39553;52.954;5.932;2023-01-19T16:40:41;4.30;99.90
53653;DHT22;39553;52.954;5.932;2023-01-19T16:43:07;3.90;99.90
53653;DHT22;39553;52.954;5.932;2023-01-19T16:45:33;2.70;99.90
53653;DHT22;39553;52.954;5.932;2023-01-19T16:47:59;2.60;99.90
53653;DHT22;39553;52.954;5.932;2023-01-19T16:50:24;3.60;99.90
53653;DHT22;39553;52.954;5.932;2023-01-19T16:52:55;2.60;99.90
53653;DHT22;39553;52.954;5.932;2023-01-19T16:55:21;2.60;99.90
53653;DHT22;39553;52.954;5.932;2023-01-19T16:57:46;2.50;99.90
53653;DHT22;39553;52.954;5.932;2023-01-19T17:00:12;2.60;99.90
53653;DHT22;39553;52.954;5.932;2023-01-19T17:02:38;2.40;99.90
53653;DHT22;39553;52.954;5.932;2023-01-19T17:05:04;3.60;99.90
53653;DHT22;39553;52.954;5.932;2023-01-19T17:07:30;2.30;99.90
53653;DHT22;39553;52.954;5.932;2023-01-19T17:09:56;2.20;99.90
53653;DHT22;39553;52.954;5.932;2023-01-19T17:12:22;2.10;99.90
53653;DHT22;39553;52.954;5.932;2023-01-19T17:14:48;2.00;99.90
53653;DHT22;39553;52.954;5.932;2023-01-19T17:17:14;1.90;99.90
53653;DHT22;39553;52.954;5.932;2023-01-19T17:19:39;1.80;99.90
53653;DHT22;39553;52.954;5.932;2023-01-19T17:22:05;2.40;99.90